sensor_id;sensor_type;location;lat;lon;timestamp;temperature;humidity
22917;DHT22;11624;53.250;7.456;2024-03-02T00:01:10;12.02;55.39
22917;DHT22;11624;53.250;7.456;2024-03-02T00:03:40;12.06;55.09
22917;DHT22;11624;53.250;7.456;2024-03-02T00:06:10;12.05;55.17
22917;DHT22;11624;53.250;7.456;2024-03-02T00:08:39;12.11;54.85
22917;DHT22;11624;53.250;7.456;2024-03-02T00:11:07;12.08;55.08
22917;DHT22;11624;53.250;7.456;2024-03-02T00:13:38;12.07;55.16
22917;DHT22;11624;53.250;7.456;2024-03-02T00:16:07;12.08;55.00
22917;DHT22;11624;53.250;7.456;2024-03-02T00:18:35;12.11;54.89
22917;DHT22;11624;53.250;7.456;2024-03-02T00:21:06;12.16;54.59
22917;DHT22;11624;53.250;7.456;2024-03-02T00:23:37;12.01;54.87
22917;DHT22;11624;53.250;7.456;2024-03-02T00:26:06;11.90;55.34
22917;DHT22;11624;53.250;7.456;2024-03-02T00:28:36;12.03;55.10
22917;DHT22;11624;53.250;7.456;2024-03-02T00:31:06;11.98;54.81
22917;DHT22;11624;53.250;7.456;2024-03-02T00:33:37;12.08;54.85
22917;DHT22;11624;53.250;7.456;2024-03-02T00:36:09;12.08;54.82
22917;DHT22;11624;53.250;7.456;2024-03-02T00:38:44;12.07;54.49
22917;DHT22;11624;53.250;7.456;2024-03-02T00:41:19;12.13;54.36
22917;DHT22;11624;53.250;7.456;2024-03-02T00:46:36;12.08;54.50
22917;DHT22;11624;53.250;7.456;2024-03-02T00:49:10;12.06;54.56
22917;DHT22;11624;53.250;7.456;2024-03-02T00:51:41;12.06;54.54
22917;DHT22;11624;53.250;7.456;2024-03-02T00:54:10;12.11;54.37
22917;DHT22;11624;53.250;7.456;2024-03-02T00:56:41;12.07;54.35
22917;DHT22;11624;53.250;7.456;2024-03-02T00:59:10;12.00;54.75
22917;DHT22;11624;53.250;7.456;2024-03-02T01:01:39;12.07;54.42
22917;DHT22;11624;53.250;7.456;2024-03-02T01:04:07;12.03;54.62
22917;DHT22;11624;53.250;7.456;2024-03-02T01:06:36;12.13;54.29
22917;DHT22;11624;53.250;7.456;2024-03-02T01:09:06;12.12;54.48
22917;DHT22;11624;53.250;7.456;2024-03-02T01:11:34;12.20;54.05
22917;DHT22;11624;53.250;7.456;2024-03-02T01:14:03;12.17;54.07
22917;DHT22;11624;53.250;7.456;2024-03-02T01:16:31;12.19;54.01
22917;DHT22;11624;53.250;7.456;2024-03-02T01:19:00;12.14;54.22
22917;DHT22;11624;53.250;7.456;2024-03-02T01:21:29;12.22;54.00
22917;DHT22;11624;53.250;7.456;2024-03-02T01:23:57;12.27;53.72
22917;DHT22;11624;53.250;7.456;2024-03-02T01:26:27;12.20;53.80
22917;DHT22;11624;53.250;7.456;2024-03-02T01:28:55;12.17;53.65
22917;DHT22;11624;53.250;7.456;2024-03-02T01:31:24;12.11;54.15
22917;DHT22;11624;53.250;7.456;2024-03-02T01:33:52;11.89;54.24
22917;DHT22;11624;53.250;7.456;2024-03-02T01:36:21;12.03;54.30
22917;DHT22;11624;53.250;7.456;2024-03-02T01:38:49;12.13;53.88
22917;DHT22;11624;53.250;7.456;2024-03-02T01:41:18;12.26;53.40
22917;DHT22;11624;53.250;7.456;2024-03-02T01:43:48;12.15;53.60
22917;DHT22;11624;53.250;7.456;2024-03-02T01:46:16;12.08;53.81
22917;DHT22;11624;53.250;7.456;2024-03-02T01:48:45;12.01;53.93
22917;DHT22;11624;53.250;7.456;2024-03-02T01:51:14;11.93;54.01
22917;DHT22;11624;53.250;7.456;2024-03-02T01:53:43;12.06;53.66
22917;DHT22;11624;53.250;7.456;2024-03-02T01:56:12;12.03;53.64
22917;DHT22;11624;53.250;7.456;2024-03-02T01:58:40;12.02;53.73
22917;DHT22;11624;53.250;7.456;2024-03-02T02:01:11;11.96;53.83
22917;DHT22;11624;53.250;7.456;2024-03-02T02:03:39;11.94;53.72
22917;DHT22;11624;53.250;7.456;2024-03-02T02:06:08;12.02;53.61
22917;DHT22;11624;53.250;7.456;2024-03-02T02:08:37;12.00;53.56
22917;DHT22;11624;53.250;7.456;2024-03-02T02:11:05;12.02;53.46
22917;DHT22;11624;53.250;7.456;2024-03-02T02:13:34;12.04;53.37
22917;DHT22;11624;53.250;7.456;2024-03-02T02:16:07;12.06;53.10
22917;DHT22;11624;53.250;7.456;2024-03-02T02:18:37;12.04;53.31
22917;DHT22;11624;53.250;7.456;2024-03-02T02:21:05;12.07;53.27
22917;DHT22;11624;53.250;7.456;2024-03-02T02:23:36;11.98;53.61
22917;DHT22;11624;53.250;7.456;2024-03-02T02:26:04;12.00;53.70
22917;DHT22;11624;53.250;7.456;2024-03-02T02:28:33;12.03;53.52
22917;DHT22;11624;53.250;7.456;2024-03-02T02:31:01;12.01;53.49
22917;DHT22;11624;53.250;7.456;2024-03-02T02:33:30;12.20;52.97
22917;DHT22;11624;53.250;7.456;2024-03-02T02:35:58;12.16;52.96
22917;DHT22;11624;53.250;7.456;2024-03-02T02:38:27;12.08;53.05
22917;DHT22;11624;53.250;7.456;2024-03-02T02:40:57;12.10;52.97
22917;DHT22;11624;53.250;7.456;2024-03-02T02:43:25;12.11;52.87
22917;DHT22;11624;53.250;7.456;2024-03-02T02:45:53;12.19;52.56
22917;DHT22;11624;53.250;7.456;2024-03-02T02:48:22;12.16;52.53
22917;DHT22;11624;53.250;7.456;2024-03-02T02:50:51;12.14;52.53
22917;DHT22;11624;53.250;7.456;2024-03-02T02:53:19;12.08;52.67
22917;DHT22;11624;53.250;7.456;2024-03-02T02:55:47;12.10;52.59
22917;DHT22;11624;53.250;7.456;2024-03-02T02:58:17;12.16;52.38
22917;DHT22;11624;53.250;7.456;2024-03-02T03:00:46;12.18;52.31
22917;DHT22;11624;53.250;7.456;2024-03-02T03:03:15;12.17;52.30
22917;DHT22;11624;53.250;7.456;2024-03-02T03:05:43;12.11;52.47
22917;DHT22;11624;53.250;7.456;2024-03-02T03:08:12;12.14;52.36
22917;DHT22;11624;53.250;7.456;2024-03-02T03:10:40;12.08;52.34
22917;DHT22;11624;53.250;7.456;2024-03-02T03:13:09;12.13;52.33
22917;DHT22;11624;53.250;7.456;2024-03-02T03:15:38;12.17;51.99
22917;DHT22;11624;53.250;7.456;2024-03-02T03:18:07;12.17;52.11
22917;DHT22;11624;53.250;7.456;2024-03-02T03:20:37;12.19;51.97
22917;DHT22;11624;53.250;7.456;2024-03-02T03:23:06;12.17;52.03
22917;DHT22;11624;53.250;7.456;2024-03-02T03:25:34;12.11;52.16
22917;DHT22;11624;53.250;7.456;2024-03-02T03:28:03;12.10;52.05
22917;DHT22;11624;53.250;7.456;2024-03-02T03:30:31;12.10;52.11
22917;DHT22;11624;53.250;7.456;2024-03-02T03:33:01;12.07;52.11
22917;DHT22;11624;53.250;7.456;2024-03-02T03:35:30;12.03;52.20
22917;DHT22;11624;53.250;7.456;2024-03-02T03:37:58;12.05;52.12
22917;DHT22;11624;53.250;7.456;2024-03-02T03:40:27;12.00;52.21
22917;DHT22;11624;53.250;7.456;2024-03-02T03:42:56;12.02;52.14
22917;DHT22;11624;53.250;7.456;2024-03-02T03:45:24;12.04;51.93
22917;DHT22;11624;53.250;7.456;2024-03-02T03:47:53;11.96;52.17
22917;DHT22;11624;53.250;7.456;2024-03-02T03:50:24;11.89;52.37
22917;DHT22;11624;53.250;7.456;2024-03-02T03:52:52;11.84;52.41
22917;DHT22;11624;53.250;7.456;2024-03-02T03:55:21;11.88;52.33
22917;DHT22;11624;53.250;7.456;2024-03-02T03:57:49;11.91;52.20
22917;DHT22;11624;53.250;7.456;2024-03-02T04:00:18;11.84;52.28
22917;DHT22;11624;53.250;7.456;2024-03-02T04:02:46;11.79;52.61
22917;DHT22;11624;53.250;7.456;2024-03-02T04:05:15;11.81;52.51
22917;DHT22;11624;53.250;7.456;2024-03-02T04:07:45;11.72;52.78
22917;DHT22;11624;53.250;7.456;2024-03-02T04:10:13;11.69;52.82
22917;DHT22;11624;53.250;7.456;2024-03-02T04:12:43;11.71;52.63
22917;DHT22;11624;53.250;7.456;2024-03-02T04:15:11;11.70;52.70
22917;DHT22;11624;53.250;7.456;2024-03-02T04:17:40;11.70;52.78
22917;DHT22;11624;53.250;7.456;2024-03-02T04:20:09;11.68;52.84
22917;DHT22;11624;53.250;7.456;2024-03-02T04:22:39;11.70;52.80
22917;DHT22;11624;53.250;7.456;2024-03-02T04:25:09;11.72;52.53
22917;DHT22;11624;53.250;7.456;2024-03-02T04:27:38;11.63;53.00
22917;DHT22;11624;53.250;7.456;2024-03-02T04:30:07;11.70;52.63
22917;DHT22;11624;53.250;7.456;2024-03-02T04:32:35;11.67;52.72
22917;DHT22;11624;53.250;7.456;2024-03-02T04:35:05;11.60;53.07
22917;DHT22;11624;53.250;7.456;2024-03-02T04:37:35;11.61;52.97
22917;DHT22;11624;53.250;7.456;2024-03-02T04:40:04;11.62;52.85
22917;DHT22;11624;53.250;7.456;2024-03-02T04:42:36;11.51;53.24
22917;DHT22;11624;53.250;7.456;2024-03-02T04:45:06;11.43;53.59
22917;DHT22;11624;53.250;7.456;2024-03-02T04:47:34;11.48;53.61
22917;DHT22;11624;53.250;7.456;2024-03-02T04:50:04;11.54;53.36
22917;DHT22;11624;53.250;7.456;2024-03-02T04:52:34;11.53;53.27
22917;DHT22;11624;53.250;7.456;2024-03-02T04:55:04;11.56;53.18
22917;DHT22;11624;53.250;7.456;2024-03-02T04:57:52;11.57;53.03
22917;DHT22;11624;53.250;7.456;2024-03-02T05:00:22;11.48;53.22
22917;DHT22;11624;53.250;7.456;2024-03-02T05:02:51;11.52;53.12
22917;DHT22;11624;53.250;7.456;2024-03-02T05:05:19;11.44;53.43
22917;DHT22;11624;53.250;7.456;2024-03-02T05:07:48;11.48;53.27
22917;DHT22;11624;53.250;7.456;2024-03-02T05:10:16;11.52;53.00
22917;DHT22;11624;53.250;7.456;2024-03-02T05:12:45;11.45;53.18
22917;DHT22;11624;53.250;7.456;2024-03-02T05:15:26;11.41;53.20
22917;DHT22;11624;53.250;7.456;2024-03-02T05:17:54;11.41;53.26
22917;DHT22;11624;53.250;7.456;2024-03-02T05:20:24;11.32;53.77
22917;DHT22;11624;53.250;7.456;2024-03-02T05:22:52;11.28;53.81
22917;DHT22;11624;53.250;7.456;2024-03-02T05:25:21;11.31;53.66
22917;DHT22;11624;53.250;7.456;2024-03-02T05:27:49;11.26;53.81
22917;DHT22;11624;53.250;7.456;2024-03-02T05:30:18;11.26;53.77
22917;DHT22;11624;53.250;7.456;2024-03-02T05:32:48;11.28;53.69
22917;DHT22;11624;53.250;7.456;2024-03-02T05:35:16;11.27;53.81
22917;DHT22;11624;53.250;7.456;2024-03-02T05:37:45;11.24;53.89
22917;DHT22;11624;53.250;7.456;2024-03-02T05:40:14;11.19;53.87
22917;DHT22;11624;53.250;7.456;2024-03-02T05:42:42;11.19;54.01
22917;DHT22;11624;53.250;7.456;2024-03-02T05:45:11;11.13;54.18
22917;DHT22;11624;53.250;7.456;2024-03-02T05:47:39;11.14;54.13
22917;DHT22;11624;53.250;7.456;2024-03-02T05:50:09;11.17;53.93
22917;DHT22;11624;53.250;7.456;2024-03-02T05:52:38;11.16;53.81
22917;DHT22;11624;53.250;7.456;2024-03-02T05:55:07;11.03;54.42
22917;DHT22;11624;53.250;7.456;2024-03-02T05:57:35;11.10;54.29
22917;DHT22;11624;53.250;7.456;2024-03-02T06:00:16;11.13;54.15
22917;DHT22;11624;53.250;7.456;2024-03-02T06:02:45;11.11;54.10
22917;DHT22;11624;53.250;7.456;2024-03-02T06:05:18;11.10;53.88
22917;DHT22;11624;53.250;7.456;2024-03-02T06:07:47;11.08;54.23
22917;DHT22;11624;53.250;7.456;2024-03-02T06:10:15;10.95;54.87
22917;DHT22;11624;53.250;7.456;2024-03-02T06:12:44;10.96;54.84
22917;DHT22;11624;53.250;7.456;2024-03-02T06:15:13;10.96;54.71
22917;DHT22;11624;53.250;7.456;2024-03-02T06:17:41;10.96;54.67
22917;DHT22;11624;53.250;7.456;2024-03-02T06:20:10;11.02;54.41
22917;DHT22;11624;53.250;7.456;2024-03-02T06:22:40;10.89;54.74
22917;DHT22;11624;53.250;7.456;2024-03-02T06:25:08;10.88;54.88
22917;DHT22;11624;53.250;7.456;2024-03-02T06:27:37;10.92;54.64
22917;DHT22;11624;53.250;7.456;2024-03-02T06:30:06;10.85;54.98
22917;DHT22;11624;53.250;7.456;2024-03-02T06:32:35;10.85;55.03
22917;DHT22;11624;53.250;7.456;2024-03-02T06:35:04;10.82;55.16
22917;DHT22;11624;53.250;7.456;2024-03-02T06:37:35;10.82;55.31
22917;DHT22;11624;53.250;7.456;2024-03-02T06:40:06;10.80;55.29
22917;DHT22;11624;53.250;7.456;2024-03-02T06:42:35;10.82;55.40
22917;DHT22;11624;53.250;7.456;2024-03-02T06:45:07;10.84;55.04
22917;DHT22;11624;53.250;7.456;2024-03-02T06:47:35;10.83;55.30
22917;DHT22;11624;53.250;7.456;2024-03-02T06:50:04;10.82;55.33
22917;DHT22;11624;53.250;7.456;2024-03-02T06:52:34;10.81;55.45
22917;DHT22;11624;53.250;7.456;2024-03-02T06:55:03;10.86;55.35
22917;DHT22;11624;53.250;7.456;2024-03-02T06:57:33;10.89;55.13
22917;DHT22;11624;53.250;7.456;2024-03-02T07:00:02;10.92;55.07
22917;DHT22;11624;53.250;7.456;2024-03-02T07:02:32;10.85;55.38
22917;DHT22;11624;53.250;7.456;2024-03-02T07:05:00;10.81;55.65
22917;DHT22;11624;53.250;7.456;2024-03-02T07:07:29;10.88;55.44
22917;DHT22;11624;53.250;7.456;2024-03-02T07:09:58;10.96;55.35
22917;DHT22;11624;53.250;7.456;2024-03-02T07:12:27;10.85;55.60
22917;DHT22;11624;53.250;7.456;2024-03-02T07:14:57;10.92;55.80
22917;DHT22;11624;53.250;7.456;2024-03-02T07:17:45;10.93;55.86
22917;DHT22;11624;53.250;7.456;2024-03-02T07:20:14;10.97;55.93
22917;DHT22;11624;53.250;7.456;2024-03-02T07:22:42;11.04;55.86
22917;DHT22;11624;53.250;7.456;2024-03-02T07:25:11;11.10;55.81
22917;DHT22;11624;53.250;7.456;2024-03-02T07:27:42;11.23;55.58
22917;DHT22;11624;53.250;7.456;2024-03-02T07:30:15;11.30;55.31
22917;DHT22;11624;53.250;7.456;2024-03-02T07:32:44;11.41;55.55
22917;DHT22;11624;53.250;7.456;2024-03-02T07:35:14;11.60;55.49
22917;DHT22;11624;53.250;7.456;2024-03-02T07:37:42;11.85;55.42
22917;DHT22;11624;53.250;7.456;2024-03-02T07:40:12;12.33;54.90
22917;DHT22;11624;53.250;7.456;2024-03-02T07:42:41;12.78;53.17
22917;DHT22;11624;53.250;7.456;2024-03-02T07:45:10;12.96;52.33
22917;DHT22;11624;53.250;7.456;2024-03-02T07:47:40;13.03;51.66
22917;DHT22;11624;53.250;7.456;2024-03-02T07:50:09;13.08;51.61
22917;DHT22;11624;53.250;7.456;2024-03-02T07:52:37;13.08;51.15
22917;DHT22;11624;53.250;7.456;2024-03-02T07:55:07;13.16;51.29
22917;DHT22;11624;53.250;7.456;2024-03-02T07:57:35;13.19;51.27
22917;DHT22;11624;53.250;7.456;2024-03-02T08:00:05;13.24;51.14
22917;DHT22;11624;53.250;7.456;2024-03-02T08:02:40;13.25;50.88
22917;DHT22;11624;53.250;7.456;2024-03-02T08:05:09;13.24;51.01
22917;DHT22;11624;53.250;7.456;2024-03-02T08:07:38;13.25;51.06
22917;DHT22;11624;53.250;7.456;2024-03-02T08:10:07;13.32;50.83
22917;DHT22;11624;53.250;7.456;2024-03-02T08:12:36;13.41;50.64
22917;DHT22;11624;53.250;7.456;2024-03-02T08:15:05;13.50;50.61
22917;DHT22;11624;53.250;7.456;2024-03-02T08:17:34;13.67;50.49
22917;DHT22;11624;53.250;7.456;2024-03-02T08:20:07;13.67;49.86
22917;DHT22;11624;53.250;7.456;2024-03-02T08:22:36;13.69;49.87
22917;DHT22;11624;53.250;7.456;2024-03-02T08:25:05;13.67;50.02
22917;DHT22;11624;53.250;7.456;2024-03-02T08:27:33;13.75;49.86
22917;DHT22;11624;53.250;7.456;2024-03-02T08:30:03;13.81;49.95
22917;DHT22;11624;53.250;7.456;2024-03-02T08:32:34;13.85;49.85
22917;DHT22;11624;53.250;7.456;2024-03-02T08:35:03;13.94;49.71
22917;DHT22;11624;53.250;7.456;2024-03-02T08:37:33;14.00;49.47
22917;DHT22;11624;53.250;7.456;2024-03-02T08:40:02;14.09;49.40
22917;DHT22;11624;53.250;7.456;2024-03-02T08:42:34;14.10;48.95
22917;DHT22;11624;53.250;7.456;2024-03-02T08:45:03;14.12;48.92
22917;DHT22;11624;53.250;7.456;2024-03-02T08:47:31;14.14;48.78
22917;DHT22;11624;53.250;7.456;2024-03-02T08:50:00;14.23;48.67
22917;DHT22;11624;53.250;7.456;2024-03-02T08:52:31;14.26;48.64
22917;DHT22;11624;53.250;7.456;2024-03-02T08:55:00;14.28;48.58
22917;DHT22;11624;53.250;7.456;2024-03-02T08:57:29;14.41;48.62
22917;DHT22;11624;53.250;7.456;2024-03-02T08:59:57;14.45;48.20
22917;DHT22;11624;53.250;7.456;2024-03-02T09:02:26;14.52;48.37
22917;DHT22;11624;53.250;7.456;2024-03-02T09:04:55;14.78;48.28
22917;DHT22;11624;53.250;7.456;2024-03-02T09:07:23;14.89;47.48
22917;DHT22;11624;53.250;7.456;2024-03-02T09:09:52;15.11;47.05
22917;DHT22;11624;53.250;7.456;2024-03-02T09:12:22;15.34;46.24
22917;DHT22;11624;53.250;7.456;2024-03-02T09:14:50;15.61;45.80
22917;DHT22;11624;53.250;7.456;2024-03-02T09:17:19;15.74;44.77
22917;DHT22;11624;53.250;7.456;2024-03-02T09:19:47;15.99;45.16
22917;DHT22;11624;53.250;7.456;2024-03-02T09:22:15;16.28;44.42
22917;DHT22;11624;53.250;7.456;2024-03-02T09:24:44;16.54;44.14
22917;DHT22;11624;53.250;7.456;2024-03-02T09:27:13;16.77;42.81
22917;DHT22;11624;53.250;7.456;2024-03-02T09:29:43;17.13;42.35
22917;DHT22;11624;53.250;7.456;2024-03-02T09:32:12;17.39;42.01
22917;DHT22;11624;53.250;7.456;2024-03-02T09:34:41;17.70;41.31
22917;DHT22;11624;53.250;7.456;2024-03-02T09:37:10;17.96;40.91
22917;DHT22;11624;53.250;7.456;2024-03-02T09:39:38;18.40;40.88
22917;DHT22;11624;53.250;7.456;2024-03-02T09:42:07;18.93;38.11
22917;DHT22;11624;53.250;7.456;2024-03-02T09:44:35;19.16;38.11
22917;DHT22;11624;53.250;7.456;2024-03-02T09:47:06;19.48;36.81
22917;DHT22;11624;53.250;7.456;2024-03-02T09:49:35;19.70;36.13
22917;DHT22;11624;53.250;7.456;2024-03-02T09:52:07;19.99;35.35
22917;DHT22;11624;53.250;7.456;2024-03-02T09:54:36;20.14;35.89
22917;DHT22;11624;53.250;7.456;2024-03-02T09:57:05;20.56;35.34
22917;DHT22;11624;53.250;7.456;2024-03-02T09:59:33;20.62;33.73
22917;DHT22;11624;53.250;7.456;2024-03-02T10:02:03;20.71;33.46
22917;DHT22;11624;53.250;7.456;2024-03-02T10:04:35;20.46;33.57
22917;DHT22;11624;53.250;7.456;2024-03-02T10:07:12;20.44;33.56
22917;DHT22;11624;53.250;7.456;2024-03-02T10:09:41;20.56;33.99
22917;DHT22;11624;53.250;7.456;2024-03-02T10:12:12;20.75;34.67
22917;DHT22;11624;53.250;7.456;2024-03-02T10:14:40;21.29;33.37
22917;DHT22;11624;53.250;7.456;2024-03-02T10:17:10;21.57;32.60
22917;DHT22;11624;53.250;7.456;2024-03-02T10:19:40;21.50;31.63
22917;DHT22;11624;53.250;7.456;2024-03-02T10:22:09;21.34;32.02
22917;DHT22;11624;53.250;7.456;2024-03-02T10:24:39;21.57;32.20
22917;DHT22;11624;53.250;7.456;2024-03-02T10:27:09;21.89;32.16
22917;DHT22;11624;53.250;7.456;2024-03-02T10:29:39;22.37;31.44
22917;DHT22;11624;53.250;7.456;2024-03-02T10:32:11;22.49;29.96
22917;DHT22;11624;53.250;7.456;2024-03-02T10:34:41;22.12;29.68
22917;DHT22;11624;53.250;7.456;2024-03-02T10:37:11;22.33;30.60
22917;DHT22;11624;53.250;7.456;2024-03-02T10:39:40;22.84;30.19
22917;DHT22;11624;53.250;7.456;2024-03-02T10:42:09;22.90;28.36
22917;DHT22;11624;53.250;7.456;2024-03-02T10:44:38;22.36;28.96
22917;DHT22;11624;53.250;7.456;2024-03-02T10:47:09;21.82;29.96
22917;DHT22;11624;53.250;7.456;2024-03-02T10:49:42;21.79;31.28
22917;DHT22;11624;53.250;7.456;2024-03-02T10:52:11;22.24;30.90
22917;DHT22;11624;53.250;7.456;2024-03-02T10:54:39;22.71;29.39
22917;DHT22;11624;53.250;7.456;2024-03-02T10:57:10;22.19;29.12
22917;DHT22;11624;53.250;7.456;2024-03-02T10:59:46;21.74;30.47
22917;DHT22;11624;53.250;7.456;2024-03-02T11:02:21;21.89;30.95
22917;DHT22;11624;53.250;7.456;2024-03-02T11:04:55;21.59;30.76
22917;DHT22;11624;53.250;7.456;2024-03-02T11:07:25;22.02;31.26
22917;DHT22;11624;53.250;7.456;2024-03-02T11:09:59;22.51;29.38
22917;DHT22;11624;53.250;7.456;2024-03-02T11:12:29;22.29;29.20
22917;DHT22;11624;53.250;7.456;2024-03-02T11:15:00;22.19;29.29
22917;DHT22;11624;53.250;7.456;2024-03-02T11:17:29;22.37;29.11
22917;DHT22;11624;53.250;7.456;2024-03-02T11:19:59;22.82;28.84
22917;DHT22;11624;53.250;7.456;2024-03-02T11:22:28;23.12;27.80
22917;DHT22;11624;53.250;7.456;2024-03-02T11:24:57;23.66;28.30
22917;DHT22;11624;53.250;7.456;2024-03-02T11:28:04;24.36;26.17
22917;DHT22;11624;53.250;7.456;2024-03-02T11:30:51;24.54;24.91
22917;DHT22;11624;53.250;7.456;2024-03-02T11:33:24;24.24;25.52
22917;DHT22;11624;53.250;7.456;2024-03-02T11:36:00;24.26;25.65
22917;DHT22;11624;53.250;7.456;2024-03-02T11:38:33;24.23;25.56
22917;DHT22;11624;53.250;7.456;2024-03-02T11:41:02;23.80;25.68
22917;DHT22;11624;53.250;7.456;2024-03-02T11:43:31;23.10;27.54
22917;DHT22;11624;53.250;7.456;2024-03-02T11:46:01;23.35;28.08
22917;DHT22;11624;53.250;7.456;2024-03-02T11:48:35;24.02;28.56
22917;DHT22;11624;53.250;7.456;2024-03-02T11:51:06;24.49;26.63
22917;DHT22;11624;53.250;7.456;2024-03-02T11:53:38;24.35;24.16
22917;DHT22;11624;53.250;7.456;2024-03-02T11:56:09;24.06;24.64
22917;DHT22;11624;53.250;7.456;2024-03-02T11:58:39;24.83;24.04
22917;DHT22;11624;53.250;7.456;2024-03-02T12:01:10;25.05;22.88
22917;DHT22;11624;53.250;7.456;2024-03-02T12:03:39;25.28;23.04
22917;DHT22;11624;53.250;7.456;2024-03-02T12:06:09;25.24;23.44
22917;DHT22;11624;53.250;7.456;2024-03-02T12:08:38;25.72;23.00
22917;DHT22;11624;53.250;7.456;2024-03-02T12:11:07;25.49;22.32
22917;DHT22;11624;53.250;7.456;2024-03-02T12:13:35;25.29;22.98
22917;DHT22;11624;53.250;7.456;2024-03-02T12:16:05;25.22;23.14
22917;DHT22;11624;53.250;7.456;2024-03-02T12:18:33;24.93;23.15
22917;DHT22;11624;53.250;7.456;2024-03-02T12:21:03;24.56;23.73
22917;DHT22;11624;53.250;7.456;2024-03-02T12:23:35;24.32;24.19
22917;DHT22;11624;53.250;7.456;2024-03-02T12:26:03;24.23;24.31
22917;DHT22;11624;53.250;7.456;2024-03-02T12:28:33;24.28;24.87
22917;DHT22;11624;53.250;7.456;2024-03-02T12:31:02;24.61;23.52
22917;DHT22;11624;53.250;7.456;2024-03-02T12:33:31;24.66;22.18
22917;DHT22;11624;53.250;7.456;2024-03-02T12:35:59;24.43;23.01
22917;DHT22;11624;53.250;7.456;2024-03-02T12:38:28;24.41;23.23
22917;DHT22;11624;53.250;7.456;2024-03-02T12:40:58;24.39;23.61
22917;DHT22;11624;53.250;7.456;2024-03-02T12:43:30;24.29;23.27
22917;DHT22;11624;53.250;7.456;2024-03-02T12:45:59;24.08;23.78
22917;DHT22;11624;53.250;7.456;2024-03-02T12:48:28;23.92;24.27
22917;DHT22;11624;53.250;7.456;2024-03-02T12:50:56;23.84;23.87
22917;DHT22;11624;53.250;7.456;2024-03-02T12:53:25;23.97;23.88
22917;DHT22;11624;53.250;7.456;2024-03-02T12:55:54;23.95;23.43
22917;DHT22;11624;53.250;7.456;2024-03-02T12:58:24;24.40;23.88
22917;DHT22;11624;53.250;7.456;2024-03-02T13:01:06;24.54;23.25
22917;DHT22;11624;53.250;7.456;2024-03-02T13:03:36;24.20;23.72
22917;DHT22;11624;53.250;7.456;2024-03-02T13:06:05;24.24;23.56
22917;DHT22;11624;53.250;7.456;2024-03-02T13:08:34;24.06;23.54
22917;DHT22;11624;53.250;7.456;2024-03-02T13:11:03;24.15;23.24
22917;DHT22;11624;53.250;7.456;2024-03-02T13:13:35;24.15;23.05
22917;DHT22;11624;53.250;7.456;2024-03-02T13:16:08;24.32;23.33
22917;DHT22;11624;53.250;7.456;2024-03-02T13:18:38;24.55;23.05
22917;DHT22;11624;53.250;7.456;2024-03-02T13:21:07;24.47;22.63
22917;DHT22;11624;53.250;7.456;2024-03-02T13:23:35;24.32;23.16
22917;DHT22;11624;53.250;7.456;2024-03-02T13:26:04;23.92;23.61
22917;DHT22;11624;53.250;7.456;2024-03-02T13:28:36;23.91;23.84
22917;DHT22;11624;53.250;7.456;2024-03-02T13:31:05;23.88;23.97
22917;DHT22;11624;53.250;7.456;2024-03-02T13:33:34;24.00;24.43
22917;DHT22;11624;53.250;7.456;2024-03-02T13:36:03;23.96;24.12
22917;DHT22;11624;53.250;7.456;2024-03-02T13:38:31;24.40;24.49
22917;DHT22;11624;53.250;7.456;2024-03-02T13:41:00;24.49;23.67
22917;DHT22;11624;53.250;7.456;2024-03-02T13:43:28;24.43;23.43
22917;DHT22;11624;53.250;7.456;2024-03-02T13:46:00;24.42;23.85
22917;DHT22;11624;53.250;7.456;2024-03-02T13:48:29;24.42;23.75
22917;DHT22;11624;53.250;7.456;2024-03-02T13:50:59;24.45;23.68
22917;DHT22;11624;53.250;7.456;2024-03-02T13:53:27;24.65;23.68
22917;DHT22;11624;53.250;7.456;2024-03-02T13:55:56;24.70;23.47
22917;DHT22;11624;53.250;7.456;2024-03-02T13:58:24;24.71;23.71
22917;DHT22;11624;53.250;7.456;2024-03-02T14:00:53;24.72;23.05
22917;DHT22;11624;53.250;7.456;2024-03-02T14:03:26;24.43;23.76
22917;DHT22;11624;53.250;7.456;2024-03-02T14:05:58;24.65;23.66
22917;DHT22;11624;53.250;7.456;2024-03-02T14:08:26;24.83;23.02
22917;DHT22;11624;53.250;7.456;2024-03-02T14:10:55;24.61;23.40
22917;DHT22;11624;53.250;7.456;2024-03-02T14:13:27;24.48;23.53
22917;DHT22;11624;53.250;7.456;2024-03-02T14:15:55;24.54;23.91
22917;DHT22;11624;53.250;7.456;2024-03-02T14:18:26;24.82;23.40
22917;DHT22;11624;53.250;7.456;2024-03-02T14:20:55;24.77;23.40
22917;DHT22;11624;53.250;7.456;2024-03-02T14:23:23;24.93;23.89
22917;DHT22;11624;53.250;7.456;2024-03-02T14:25:52;25.29;23.48
22917;DHT22;11624;53.250;7.456;2024-03-02T14:28:21;25.30;22.69
22917;DHT22;11624;53.250;7.456;2024-03-02T14:31:09;25.28;23.00
22917;DHT22;11624;53.250;7.456;2024-03-02T14:33:39;25.09;23.33
22917;DHT22;11624;53.250;7.456;2024-03-02T14:36:08;25.06;22.90
22917;DHT22;11624;53.250;7.456;2024-03-02T14:38:36;24.89;23.79
22917;DHT22;11624;53.250;7.456;2024-03-02T14:41:05;24.99;24.22
22917;DHT22;11624;53.250;7.456;2024-03-02T14:43:34;25.08;24.14
22917;DHT22;11624;53.250;7.456;2024-03-02T14:46:04;25.30;23.89
22917;DHT22;11624;53.250;7.456;2024-03-02T14:48:35;25.34;23.41
22917;DHT22;11624;53.250;7.456;2024-03-02T14:51:05;25.02;23.55
22917;DHT22;11624;53.250;7.456;2024-03-02T14:53:34;24.73;23.98
22917;DHT22;11624;53.250;7.456;2024-03-02T14:56:04;24.29;24.72
22917;DHT22;11624;53.250;7.456;2024-03-02T14:58:33;24.46;25.16
22917;DHT22;11624;53.250;7.456;2024-03-02T15:01:03;24.78;24.91
22917;DHT22;11624;53.250;7.456;2024-03-02T15:03:33;24.62;25.02
22917;DHT22;11624;53.250;7.456;2024-03-02T15:06:02;24.40;24.94
22917;DHT22;11624;53.250;7.456;2024-03-02T15:08:32;24.59;25.35
22917;DHT22;11624;53.250;7.456;2024-03-02T15:11:01;24.91;25.19
22917;DHT22;11624;53.250;7.456;2024-03-02T15:13:31;24.90;24.31
22917;DHT22;11624;53.250;7.456;2024-03-02T15:16:00;24.35;24.75
22917;DHT22;11624;53.250;7.456;2024-03-02T15:18:29;23.85;25.96
22917;DHT22;11624;53.250;7.456;2024-03-02T15:20:57;23.60;26.36
22917;DHT22;11624;53.250;7.456;2024-03-02T15:23:26;23.41;27.23
22917;DHT22;11624;53.250;7.456;2024-03-02T15:25:58;23.15;27.51
22917;DHT22;11624;53.250;7.456;2024-03-02T15:28:27;22.85;27.83
22917;DHT22;11624;53.250;7.456;2024-03-02T15:30:55;22.65;28.29
22917;DHT22;11624;53.250;7.456;2024-03-02T15:33:24;22.38;28.51
22917;DHT22;11624;53.250;7.456;2024-03-02T15:35:58;21.92;29.48
22917;DHT22;11624;53.250;7.456;2024-03-02T15:38:27;21.90;29.72
22917;DHT22;11624;53.250;7.456;2024-03-02T15:41:03;21.75;30.06
22917;DHT22;11624;53.250;7.456;2024-03-02T15:43:31;21.60;30.51
22917;DHT22;11624;53.250;7.456;2024-03-02T15:46:03;21.60;30.64
22917;DHT22;11624;53.250;7.456;2024-03-02T15:48:32;21.57;30.75